createdAt,value
2018-05-04T00:00:33.117Z,0.00
2018-05-04T00:01:33.026Z,0.00
2018-05-04T00:02:32.988Z,0.00
2018-05-04T00:03:32.936Z,0.00
2018-05-04T00:04:32.944Z,0.00
2018-05-04T00:05:32.862Z,0.00
2018-05-04T00:06:32.829Z,0.00
2018-05-04T00:07:32.794Z,0.00
2018-05-04T00:08:32.729Z,0.00
2018-05-04T00:09:32.717Z,0.00
2018-05-04T00:10:32.663Z,0.00
2018-05-04T00:11:32.606Z,0.00
2018-05-04T00:12:42.966Z,0.00
2018-05-04T00:13:32.525Z,0.00
2018-05-04T00:14:32.519Z,0.00
2018-05-04T00:15:32.450Z,0.00
2018-05-04T00:16:32.412Z,0.00
2018-05-04T00:17:32.376Z,0.00
2018-05-04T00:18:32.316Z,0.00
2018-05-04T00:19:32.306Z,0.00
2018-05-04T00:20:32.237Z,0.00
2018-05-04T00:21:42.486Z,0.00
2018-05-04T00:22:32.164Z,0.00
2018-05-04T00:23:32.120Z,0.00
2018-05-04T00:24:32.109Z,0.00
2018-05-04T00:25:32.095Z,0.00
2018-05-04T00:26:32.011Z,0.00
2018-05-04T00:27:31.969Z,0.00
2018-05-04T00:28:31.913Z,0.00
2018-05-04T00:29:31.891Z,0.00
2018-05-04T00:30:31.824Z,0.00
2018-05-04T00:31:31.788Z,0.00
2018-05-04T00:32:31.763Z,0.00
2018-05-04T00:33:31.734Z,0.00
2018-05-04T00:34:31.666Z,0.00
2018-05-04T00:35:42.997Z,0.00
2018-05-04T00:36:31.574Z,0.00
2018-05-04T00:37:31.536Z,0.00
2018-05-04T00:38:31.522Z,0.00
2018-05-04T00:39:31.456Z,0.00
2018-05-04T00:40:31.411Z,0.00
2018-05-04T00:41:31.395Z,0.00
2018-05-04T00:42:31.354Z,0.00
2018-05-04T00:43:31.372Z,0.00
2018-05-04T00:44:31.276Z,0.00
2018-05-04T00:45:31.215Z,0.00
2018-05-04T00:46:31.169Z,0.00
2018-05-04T00:47:31.117Z,0.00
2018-05-04T00:48:31.096Z,0.00
2018-05-04T00:49:31.044Z,0.00
2018-05-04T00:50:31.067Z,0.00
2018-05-04T00:51:30.977Z,0.00
2018-05-04T00:52:30.926Z,0.00
2018-05-04T00:53:30.903Z,0.00
2018-05-04T00:54:30.834Z,0.00
2018-05-04T00:55:30.791Z,0.00
2018-05-04T00:56:30.765Z,0.00
2018-05-04T00:57:30.713Z,0.00
2018-05-04T00:58:30.712Z,0.00
2018-05-04T00:59:30.620Z,0.00
2018-05-04T01:00:30.579Z,0.00
2018-05-04T01:01:30.545Z,0.00
2018-05-04T01:02:30.505Z,0.00
2018-05-04T01:03:30.490Z,0.00
2018-05-04T01:04:30.438Z,0.00
2018-05-04T01:05:30.400Z,0.00
2018-05-04T01:06:30.343Z,0.00
2018-05-04T01:07:30.293Z,0.00
2018-05-04T01:08:30.277Z,0.00
2018-05-04T01:09:30.226Z,0.00
2018-05-04T01:10:30.197Z,0.00
2018-05-04T01:11:30.136Z,0.00
2018-05-04T01:12:30.107Z,0.00
2018-05-04T01:13:30.048Z,0.00
2018-05-04T01:14:30.013Z,0.00
2018-05-04T01:15:29.984Z,0.00
2018-05-04T01:16:30.018Z,0.00
2018-05-04T01:17:29.904Z,0.00
2018-05-04T01:18:29.846Z,0.00
2018-05-04T01:19:29.796Z,0.00
2018-05-04T01:20:29.753Z,0.00
2018-05-04T01:21:29.726Z,0.00
2018-05-04T01:22:29.706Z,0.00
2018-05-04T01:23:29.639Z,0.00
2018-05-04T01:24:29.608Z,0.00
2018-05-04T01:25:29.620Z,0.00
2018-05-04T01:26:29.515Z,0.00
2018-05-04T01:27:29.484Z,0.00
2018-05-04T01:28:29.432Z,0.00
2018-05-04T01:29:29.386Z,0.00
2018-05-04T01:30:29.345Z,0.00
2018-05-04T01:31:29.303Z,0.00
2018-05-04T01:32:29.277Z,0.00
2018-05-04T01:33:29.218Z,0.00
2018-05-04T01:34:29.177Z,0.00
2018-05-04T01:35:29.141Z,0.00
2018-05-04T01:36:29.098Z,0.00
2018-05-04T01:37:29.078Z,0.00
2018-05-04T01:38:29.014Z,0.00
2018-05-04T01:39:28.982Z,0.00
2018-05-04T01:40:28.927Z,0.00
2018-05-04T01:41:28.922Z,0.00
2018-05-04T01:42:28.872Z,0.00
2018-05-04T01:43:28.810Z,0.00
2018-05-04T01:44:28.756Z,0.00
2018-05-04T01:45:28.722Z,0.00
2018-05-04T01:46:28.702Z,0.00
2018-05-04T01:47:28.642Z,0.00
2018-05-04T01:48:28.606Z,0.00
2018-05-04T01:49:28.554Z,0.00
2018-05-04T01:50:28.513Z,0.00
2018-05-04T01:51:28.501Z,0.00
2018-05-04T01:52:28.461Z,0.00
2018-05-04T01:53:28.388Z,0.00
2018-05-04T01:54:28.354Z,0.00
2018-05-04T01:55:28.310Z,0.00
2018-05-04T01:56:28.298Z,0.00
2018-05-04T01:57:28.228Z,0.00
2018-05-04T01:58:28.182Z,0.00
2018-05-04T01:59:28.178Z,0.00
2018-05-04T02:00:28.147Z,0.00
2018-05-04T02:01:28.082Z,0.00
2018-05-04T02:02:28.014Z,0.00
2018-05-04T02:03:27.968Z,0.00
2018-05-04T02:04:27.930Z,0.00
2018-05-04T02:05:27.892Z,0.00
2018-05-04T02:06:37.559Z,0.00
2018-05-04T02:07:27.817Z,0.00
2018-05-04T02:08:27.771Z,0.00
2018-05-04T02:09:27.717Z,0.00
2018-05-04T02:10:27.716Z,0.00
2018-05-04T02:11:27.714Z,0.00
2018-05-04T02:12:27.603Z,0.00
2018-05-04T02:13:27.563Z,0.00
2018-05-04T02:14:27.509Z,0.00
2018-05-04T02:15:27.470Z,0.00
2018-05-04T02:16:27.459Z,0.00
2018-05-04T02:17:27.399Z,0.00
2018-05-04T02:18:27.356Z,0.00
2018-05-04T02:19:27.324Z,0.00
2018-05-04T02:20:27.260Z,0.00
2018-05-04T02:21:27.240Z,0.00
2018-05-04T02:22:27.176Z,0.00
2018-05-04T02:23:27.139Z,0.00
2018-05-04T02:24:27.097Z,0.00
2018-05-04T02:25:27.084Z,0.00
2018-05-04T02:26:27.024Z,0.00
2018-05-04T02:27:26.976Z,0.00
2018-05-04T02:28:26.948Z,0.00
2018-05-04T02:29:27.001Z,0.00
2018-05-04T02:30:26.910Z,0.00
2018-05-04T02:31:26.813Z,0.00
2018-05-04T02:32:26.779Z,0.00
2018-05-04T02:33:26.730Z,0.00
2018-05-04T02:34:26.781Z,0.00
2018-05-04T02:35:26.664Z,0.00
2018-05-04T02:36:26.607Z,0.00
2018-05-04T02:37:26.563Z,0.00
2018-05-04T02:38:26.524Z,0.00
2018-05-04T02:39:26.489Z,0.00
2018-05-04T02:40:26.461Z,0.00
2018-05-04T02:41:26.386Z,0.00
2018-05-04T02:42:26.412Z,0.00
2018-05-04T02:43:26.316Z,0.00
2018-05-04T02:44:26.274Z,0.00
2018-05-04T02:45:26.446Z,0.00
2018-05-04T02:46:26.273Z,0.00
2018-05-04T02:47:26.151Z,0.00
2018-05-04T02:48:26.101Z,0.00
2018-05-04T02:49:26.064Z,0.00
2018-05-04T02:50:26.046Z,0.00
2018-05-04T02:51:25.975Z,0.00
2018-05-04T02:52:25.930Z,0.00
2018-05-04T02:53:25.909Z,0.00
2018-05-04T02:54:25.887Z,0.00
2018-05-04T02:55:25.869Z,0.00
2018-05-04T02:56:25.853Z,0.00
2018-05-04T02:57:36.067Z,0.00
2018-05-04T02:58:25.684Z,0.00
2018-05-04T02:59:25.660Z,0.00
2018-05-04T03:00:25.604Z,0.00
2018-05-04T03:01:25.555Z,0.00
2018-05-04T03:02:25.515Z,0.00
2018-05-04T03:03:25.471Z,0.00
2018-05-04T03:04:25.451Z,0.00
2018-05-04T03:05:25.389Z,0.00
2018-05-04T03:06:25.349Z,0.00
2018-05-04T03:07:25.419Z,0.00
2018-05-04T03:08:25.274Z,0.00
2018-05-04T03:09:25.248Z,0.00
2018-05-04T03:10:25.188Z,0.00
2018-05-04T03:11:25.134Z,0.00
2018-05-04T03:12:25.095Z,0.00
2018-05-04T03:13:25.052Z,0.00
2018-05-04T03:14:25.042Z,0.00
2018-05-04T03:15:25.008Z,0.00
2018-05-04T03:16:24.923Z,0.00
2018-05-04T03:17:24.884Z,0.00
2018-05-04T03:18:24.934Z,0.00
2018-05-04T03:19:24.844Z,4.00
2018-05-04T03:20:36.078Z,4.00
2018-05-04T03:21:24.715Z,4.00
2018-05-04T03:22:24.670Z,0.00
2018-05-04T03:23:24.634Z,4.00
2018-05-04T03:24:24.624Z,4.00
2018-05-04T03:25:24.559Z,4.00
2018-05-04T03:26:24.521Z,4.00
2018-05-04T03:27:24.469Z,8.00
2018-05-04T03:28:24.426Z,4.00
2018-05-04T03:29:24.401Z,4.00
2018-05-04T03:30:24.352Z,8.00
2018-05-04T03:31:24.305Z,12.00
2018-05-04T03:32:24.265Z,12.00
2018-05-04T03:33:24.213Z,12.00
2018-05-04T03:34:24.197Z,16.00
2018-05-04T03:35:24.135Z,16.00
2018-05-04T03:36:24.088Z,20.00
2018-05-04T03:37:24.053Z,24.00
2018-05-04T03:38:24.068Z,28.00
2018-05-04T03:39:23.967Z,32.00
2018-05-04T03:40:23.922Z,36.00
2018-05-04T03:41:23.885Z,40.00
2018-05-04T03:42:23.831Z,48.00
2018-05-04T03:43:23.822Z,56.00
2018-05-04T03:44:23.756Z,64.00
2018-05-04T03:45:23.826Z,72.00
2018-05-04T03:46:23.684Z,80.00
2018-05-04T03:47:23.630Z,92.00
2018-05-04T03:48:23.614Z,104.00
2018-05-04T03:49:34.651Z,116.00
2018-05-04T03:50:23.507Z,132.00
2018-05-04T03:51:23.461Z,148.00
2018-05-04T03:52:23.414Z,164.00
2018-05-04T03:53:23.404Z,180.00
2018-05-04T03:54:23.337Z,200.00
2018-05-04T03:55:23.300Z,220.00
2018-05-04T03:56:23.257Z,244.00
2018-05-04T03:57:23.289Z,268.00
2018-05-04T03:58:23.194Z,292.00
2018-05-04T03:59:23.120Z,320.00
2018-05-04T04:00:23.095Z,348.00
2018-05-04T04:01:23.044Z,380.00
2018-05-04T04:02:23.047Z,412.00
2018-05-04T04:03:22.976Z,448.00
2018-05-04T04:04:22.910Z,480.00
2018-05-04T04:05:22.876Z,520.00
2018-05-04T04:06:22.839Z,560.00
2018-05-04T04:07:33.141Z,604.00
2018-05-04T04:08:22.834Z,648.00
2018-05-04T04:09:22.734Z,688.00
2018-05-04T04:10:22.662Z,740.00
2018-05-04T04:11:22.624Z,788.00
2018-05-04T04:12:22.582Z,840.00
2018-05-04T04:13:22.564Z,896.00
2018-05-04T04:14:22.504Z,952.00
2018-05-04T04:15:22.457Z,1004.00
2018-05-04T04:16:22.412Z,1068.00
2018-05-04T04:17:22.428Z,1124.00
2018-05-04T04:18:22.416Z,1188.00
2018-05-04T04:19:22.298Z,1248.00
2018-05-04T04:20:22.258Z,1312.00
2018-05-04T04:21:22.307Z,1376.00
2018-05-04T04:22:22.159Z,1444.00
2018-05-04T04:23:22.135Z,1508.00
2018-05-04T04:24:22.093Z,1576.00
2018-05-04T04:25:22.036Z,1644.00
2018-05-04T04:26:21.991Z,1716.00
2018-05-04T04:27:21.954Z,1784.00
2018-05-04T04:28:21.921Z,1856.00
2018-05-04T04:29:21.872Z,1928.00
2018-05-04T04:30:21.828Z,2004.00
2018-05-04T04:31:21.783Z,2076.00
2018-05-04T04:32:21.732Z,2152.00
2018-05-04T04:33:21.736Z,2224.00
2018-05-04T04:34:21.658Z,2300.00
2018-05-04T04:35:21.604Z,2376.00
2018-05-04T04:36:21.589Z,2456.00
2018-05-04T04:37:21.675Z,2532.00
2018-05-04T04:38:21.530Z,2612.00
2018-05-04T04:39:21.454Z,2696.00
2018-05-04T04:40:21.473Z,2776.00
2018-05-04T04:41:21.399Z,2856.00
2018-05-04T04:42:21.346Z,2936.00
2018-05-04T04:43:21.265Z,3012.00
2018-05-04T04:44:21.238Z,3088.00
2018-05-04T04:45:21.275Z,3172.00
2018-05-04T04:46:21.150Z,3248.00
2018-05-04T04:47:21.118Z,3332.00
2018-05-04T04:48:21.070Z,3412.00
2018-05-04T04:49:21.020Z,3492.00
2018-05-04T04:50:20.992Z,3568.00
2018-05-04T04:51:20.937Z,3644.00
2018-05-04T04:52:21.002Z,3720.00
2018-05-04T04:53:20.862Z,3796.00
2018-05-04T04:54:20.827Z,3876.00
2018-05-04T04:55:20.764Z,3956.00
2018-05-04T04:56:20.739Z,4036.00
2018-05-04T04:57:20.716Z,4116.00
2018-05-04T04:58:20.680Z,4316.00
2018-05-04T04:59:20.611Z,5676.00
2018-05-04T05:00:20.561Z,7252.00
2018-05-04T05:01:20.518Z,8248.00
2018-05-04T05:02:20.541Z,8820.00
2018-05-04T05:03:20.510Z,9020.00
2018-05-04T05:04:20.408Z,9168.00
2018-05-04T05:05:20.347Z,9340.00
2018-05-04T05:06:20.316Z,9472.00
2018-05-04T05:07:20.429Z,9560.00
2018-05-04T05:08:20.253Z,9736.00
2018-05-04T05:09:20.209Z,9920.00
2018-05-04T05:10:20.147Z,10028.00
2018-05-04T05:11:20.257Z,10116.00
2018-05-04T05:12:20.097Z,10440.00
2018-05-04T05:13:20.020Z,11176.00
2018-05-04T05:14:19.978Z,11300.00
2018-05-04T05:15:19.949Z,11012.00
2018-05-04T05:16:19.978Z,11232.00
2018-05-04T05:17:19.976Z,11504.00
2018-05-04T05:18:19.837Z,11460.00
2018-05-04T05:19:19.811Z,11356.00
2018-05-04T05:20:19.755Z,11556.00
2018-05-04T05:21:19.743Z,11728.00
2018-05-04T05:22:19.706Z,11684.00
2018-05-04T05:23:19.637Z,11668.00
2018-05-04T05:24:19.590Z,11780.00
2018-05-04T05:25:19.653Z,11900.00
2018-05-04T05:26:19.544Z,12008.00
2018-05-04T05:27:19.470Z,12096.00
2018-05-04T05:28:19.449Z,12188.00
2018-05-04T05:29:19.398Z,12288.00
2018-05-04T05:30:19.356Z,12452.00
2018-05-04T05:31:19.350Z,12596.00
2018-05-04T05:32:19.275Z,12736.00
2018-05-04T05:33:19.261Z,12888.00
2018-05-04T05:34:19.222Z,13040.00
2018-05-04T05:35:19.251Z,13168.00
2018-05-04T05:36:19.156Z,13368.00
2018-05-04T05:37:19.096Z,13596.00
2018-05-04T05:38:19.202Z,14084.00
2018-05-04T05:39:19.072Z,15328.00
2018-05-04T05:40:19.015Z,16640.00
2018-05-04T05:41:18.984Z,17792.00
2018-05-04T05:42:18.991Z,18336.00
2018-05-04T05:43:18.877Z,19232.00
2018-05-04T05:44:18.833Z,19744.00
2018-05-04T05:45:18.802Z,19840.00
2018-05-04T05:46:18.816Z,19904.00
2018-05-04T05:47:18.719Z,20608.00
2018-05-04T05:48:18.696Z,21056.00
2018-05-04T05:49:18.652Z,21152.00
2018-05-04T05:50:18.640Z,21408.00
2018-05-04T05:51:18.576Z,22176.00
2018-05-04T05:52:18.554Z,23488.00
2018-05-04T05:53:18.511Z,24768.00
2018-05-04T05:54:18.476Z,25824.00
2018-05-04T05:55:18.467Z,27520.00
2018-05-04T05:56:18.395Z,28960.00
2018-05-04T05:57:18.365Z,28224.00
2018-05-04T05:58:18.330Z,25920.00
2018-05-04T05:59:18.288Z,24256.00
2018-05-04T06:00:18.285Z,23552.00
2018-05-04T06:01:18.223Z,23232.00
2018-05-04T06:02:18.193Z,23008.00
2018-05-04T06:03:18.172Z,22976.00
2018-05-04T06:04:18.112Z,23392.00
2018-05-04T06:05:27.705Z,24000.00
2018-05-04T06:06:18.047Z,24192.00
2018-05-04T06:07:18.013Z,24352.00
2018-05-04T06:08:17.989Z,24640.00
2018-05-04T06:09:17.962Z,24768.00
2018-05-04T06:10:17.953Z,24800.00
2018-05-04T06:11:17.877Z,24768.00
2018-05-04T06:12:17.847Z,24800.00
2018-05-04T06:13:17.812Z,25056.00
2018-05-04T06:14:17.782Z,25408.00
2018-05-04T06:15:17.767Z,25920.00
2018-05-04T06:16:17.705Z,25152.00
2018-05-04T06:17:17.661Z,24160.00
2018-05-04T06:18:17.642Z,24736.00
2018-05-04T06:19:17.604Z,25920.00
2018-05-04T06:20:17.596Z,26496.00
2018-05-04T06:21:17.536Z,26944.00
2018-05-04T06:22:17.506Z,27584.00
2018-05-04T06:23:17.472Z,27520.00
2018-05-04T06:24:17.457Z,27584.00
2018-05-04T06:25:17.402Z,27872.00
2018-05-04T06:26:17.357Z,28320.00
2018-05-04T06:27:17.325Z,28640.00
2018-05-04T06:28:17.296Z,28800.00
2018-05-04T06:29:17.296Z,28992.00
2018-05-04T06:30:17.236Z,29088.00
2018-05-04T06:31:17.198Z,29280.00
2018-05-04T06:32:17.164Z,29664.00
2018-05-04T06:33:17.133Z,29728.00
2018-05-04T06:34:17.117Z,29984.00
2018-05-04T06:35:17.071Z,29952.00
2018-05-04T06:36:17.038Z,30144.00
2018-05-04T06:37:17.014Z,30400.00
2018-05-04T06:38:16.965Z,30272.00
2018-05-04T06:39:16.957Z,30240.00
2018-05-04T06:40:16.896Z,30656.00
2018-05-04T06:41:16.921Z,31168.00
2018-05-04T06:42:16.875Z,30816.00
2018-05-04T06:43:16.825Z,30336.00
2018-05-04T06:44:16.811Z,30144.00
2018-05-04T06:45:27.232Z,30176.00
2018-05-04T06:46:16.722Z,30848.00
2018-05-04T06:47:16.674Z,31488.00
2018-05-04T06:48:16.665Z,31776.00
2018-05-04T06:49:17.223Z,31872.00
2018-05-04T06:50:16.571Z,32064.00
2018-05-04T06:51:16.552Z,32576.00
2018-05-04T06:52:16.520Z,33088.00
2018-05-04T06:53:27.262Z,33216.00
2018-05-04T06:54:16.446Z,33408.00
2018-05-04T06:55:16.410Z,33856.00
2018-05-04T06:56:16.384Z,34528.00
2018-05-04T06:57:16.352Z,35168.00
2018-05-04T06:58:16.325Z,35168.00
2018-05-04T06:59:16.358Z,34720.00
2018-05-04T07:00:16.249Z,34528.00
2018-05-04T07:01:16.223Z,34272.00
2018-05-04T07:02:16.194Z,34560.00
2018-05-04T07:03:16.176Z,35136.00
2018-05-04T07:04:16.404Z,35392.00
2018-05-04T07:05:16.092Z,35552.00
2018-05-04T07:06:16.051Z,35648.00
2018-05-04T07:07:16.016Z,36288.00
2018-05-04T07:08:16.016Z,36384.00
2018-05-04T07:09:15.955Z,36224.00
2018-05-04T07:10:15.932Z,35680.00
2018-05-04T07:11:15.894Z,35264.00
2018-05-04T07:12:15.866Z,35392.00
2018-05-04T07:13:15.864Z,35872.00
2018-05-04T07:14:15.799Z,35776.00
2018-05-04T07:15:15.768Z,35808.00
2018-05-04T07:16:25.780Z,35968.00
2018-05-04T07:17:15.717Z,35648.00
2018-05-04T07:18:15.698Z,35264.00
2018-05-04T07:19:15.637Z,35584.00
2018-05-04T07:20:15.618Z,36288.00
2018-05-04T07:21:15.579Z,36352.00
2018-05-04T07:22:15.544Z,36320.00
2018-05-04T07:23:15.551Z,36416.00
2018-05-04T07:24:15.474Z,36672.00
2018-05-04T07:25:15.450Z,36576.00
2018-05-04T07:26:15.418Z,36480.00
2018-05-04T07:27:15.376Z,36768.00
2018-05-04T07:28:15.383Z,37632.00
2018-05-04T07:29:15.334Z,38400.00
2018-05-04T07:30:15.296Z,38368.00
2018-05-04T07:31:15.301Z,38144.00
2018-05-04T07:32:15.247Z,38272.00
2018-05-04T07:33:15.238Z,38688.00
2018-05-04T07:34:15.192Z,38304.00
2018-05-04T07:35:15.171Z,37888.00
2018-05-04T07:36:15.104Z,38112.00
2018-05-04T07:37:15.095Z,38880.00
2018-05-04T07:38:15.043Z,39520.00
2018-05-04T07:39:15.005Z,39520.00
2018-05-04T07:40:14.992Z,39520.00
2018-05-04T07:41:14.950Z,39648.00
2018-05-04T07:42:14.961Z,39360.00
2018-05-04T07:43:14.936Z,39968.00
2018-05-04T07:44:14.874Z,40448.00
2018-05-04T07:45:14.832Z,40448.00
2018-05-04T07:46:14.811Z,39648.00
2018-05-04T07:47:14.841Z,39136.00
2018-05-04T07:48:14.733Z,39008.00
2018-05-04T07:49:14.724Z,39808.00
2018-05-04T07:50:14.679Z,40704.00
2018-05-04T07:51:14.634Z,41408.00
2018-05-04T07:52:14.636Z,41472.00
2018-05-04T07:53:14.580Z,41504.00
2018-05-04T07:54:14.555Z,41856.00
2018-05-04T07:55:14.574Z,41472.00
2018-05-04T07:56:14.477Z,41120.00
2018-05-04T07:57:14.468Z,41280.00
2018-05-04T07:58:14.432Z,42016.00
2018-05-04T07:59:14.657Z,42336.00
2018-05-04T08:00:14.370Z,42080.00
2018-05-04T08:01:14.341Z,42016.00
2018-05-04T08:02:14.331Z,41312.00
2018-05-04T08:03:14.269Z,41792.00
2018-05-04T08:04:24.721Z,42848.00
2018-05-04T08:05:14.213Z,43808.00
2018-05-04T08:06:14.173Z,44064.00
2018-05-04T08:07:14.268Z,43712.00
2018-05-04T08:08:14.121Z,43680.00
2018-05-04T08:09:14.074Z,44320.00
2018-05-04T08:10:14.061Z,44544.00
2018-05-04T08:11:14.036Z,44832.00
2018-05-04T08:12:14.020Z,45248.00
2018-05-04T08:13:13.987Z,45504.00
2018-05-04T08:14:13.932Z,45664.00
2018-05-04T08:15:13.907Z,45376.00
2018-05-04T08:16:13.895Z,45344.00
2018-05-04T08:17:13.836Z,45312.00
2018-05-04T08:18:13.825Z,45152.00
2018-05-04T08:19:13.789Z,44288.00
2018-05-04T08:20:13.780Z,42848.00
2018-05-04T08:21:13.748Z,43104.00
2018-05-04T08:22:13.696Z,45344.00
2018-05-04T08:23:13.653Z,46688.00
2018-05-04T08:24:13.622Z,46432.00
2018-05-04T08:25:13.602Z,45376.00
2018-05-04T08:26:13.593Z,45280.00
2018-05-04T08:27:13.549Z,45920.00
2018-05-04T08:28:13.514Z,46848.00
2018-05-04T08:29:13.473Z,46944.00
2018-05-04T08:30:13.447Z,46176.00
2018-05-04T08:31:13.440Z,46208.00
2018-05-04T08:32:13.402Z,47552.00
2018-05-04T08:33:13.350Z,47616.00
2018-05-04T08:34:13.324Z,48000.00
2018-05-04T08:35:13.342Z,49024.00
2018-05-04T08:36:13.293Z,49504.00
2018-05-04T08:37:13.237Z,49952.00
2018-05-04T08:38:13.201Z,49088.00
2018-05-04T08:39:13.164Z,49504.00
2018-05-04T08:40:13.138Z,50240.00
2018-05-04T08:41:13.131Z,50144.00
2018-05-04T08:42:13.081Z,49728.00
2018-05-04T08:43:13.124Z,49664.00
2018-05-04T08:44:13.035Z,49984.00
2018-05-04T08:45:12.991Z,50944.00
2018-05-04T08:46:12.985Z,51616.00
2018-05-04T08:47:13.551Z,51424.00
2018-05-04T08:48:12.924Z,50784.00
2018-05-04T08:49:12.874Z,51232.00
2018-05-04T08:50:12.846Z,51904.00
2018-05-04T08:51:12.925Z,51552.00
2018-05-04T08:52:12.777Z,51104.00
2018-05-04T08:53:12.750Z,51072.00
2018-05-04T08:54:12.746Z,51360.00
2018-05-04T08:55:12.722Z,52032.00
2018-05-04T08:56:12.677Z,51936.00
2018-05-04T08:57:12.664Z,51904.00
2018-05-04T08:58:12.613Z,51616.00
2018-05-04T08:59:12.589Z,50784.00
2018-05-04T09:00:12.562Z,49888.00
2018-05-04T09:01:12.569Z,49856.00
2018-05-04T09:02:12.494Z,50016.00
2018-05-04T09:03:12.464Z,50112.00
2018-05-04T09:04:12.434Z,50528.00
2018-05-04T09:05:12.444Z,51072.00
2018-05-04T09:06:12.397Z,51840.00
2018-05-04T09:07:12.328Z,52000.00
2018-05-04T09:08:12.316Z,51584.00
2018-05-04T09:09:12.271Z,51168.00
2018-05-04T09:10:12.241Z,50912.00
2018-05-04T09:11:12.205Z,50112.00
2018-05-04T09:12:12.212Z,48736.00
2018-05-04T09:13:12.156Z,47424.00
2018-05-04T09:14:12.130Z,47392.00
2018-05-04T09:15:22.373Z,48608.00
2018-05-04T09:16:12.063Z,48736.00
2018-05-04T09:17:12.034Z,48608.00
2018-05-04T09:18:12.025Z,48992.00
2018-05-04T09:19:12.007Z,49568.00
2018-05-04T09:20:11.955Z,49632.00
2018-05-04T09:21:11.923Z,48256.00
2018-05-04T09:22:11.890Z,48352.00
2018-05-04T09:23:11.857Z,49792.00
2018-05-04T09:24:11.858Z,50496.00
2018-05-04T09:25:11.866Z,49600.00
2018-05-04T09:26:11.775Z,48640.00
2018-05-04T09:27:11.742Z,49728.00
2018-05-04T09:28:11.712Z,50720.00
2018-05-04T09:29:11.747Z,51264.00
2018-05-04T09:30:11.708Z,50400.00
2018-05-04T09:31:11.641Z,50464.00
2018-05-04T09:32:11.613Z,51008.00
2018-05-04T09:33:11.593Z,49504.00
2018-05-04T09:34:11.591Z,50112.00
2018-05-04T09:35:11.512Z,47744.00
2018-05-04T09:36:11.480Z,47424.00
2018-05-04T09:37:22.929Z,47584.00
2018-05-04T09:38:11.423Z,48096.00
2018-05-04T09:39:11.382Z,49024.00
2018-05-04T09:40:11.397Z,49952.00
2018-05-04T09:41:11.362Z,50880.00
2018-05-04T09:42:11.303Z,51808.00
2018-05-04T09:43:11.291Z,51520.00
2018-05-04T09:44:11.248Z,52096.00
2018-05-04T09:45:11.218Z,53760.00
2018-05-04T09:46:11.248Z,53952.00
2018-05-04T09:47:11.160Z,54368.00
2018-05-04T09:48:11.142Z,53184.00
2018-05-04T09:49:11.156Z,52864.00
2018-05-04T09:50:11.093Z,51424.00
2018-05-04T09:51:11.085Z,49600.00
2018-05-04T09:52:11.049Z,48736.00
2018-05-04T09:53:11.007Z,48928.00
2018-05-04T09:54:11.039Z,51712.00
2018-05-04T09:55:10.949Z,52608.00
2018-05-04T09:56:10.963Z,52800.00
2018-05-04T09:57:10.918Z,52224.00
2018-05-04T09:58:10.854Z,52128.00
2018-05-04T09:59:10.819Z,52128.00
2018-05-04T10:00:10.789Z,53376.00
2018-05-04T10:01:20.948Z,52992.00
2018-05-04T10:02:10.754Z,53216.00
2018-05-04T10:03:10.730Z,51936.00
2018-05-04T10:04:10.689Z,51712.00
2018-05-04T10:05:10.646Z,51648.00
2018-05-04T10:06:10.655Z,52128.00
2018-05-04T10:07:10.621Z,49472.00
2018-05-04T10:08:10.608Z,48064.00
2018-05-04T10:09:10.594Z,47712.00
2018-05-04T10:10:10.503Z,50528.00
2018-05-04T10:11:10.491Z,51072.00
2018-05-04T10:12:10.484Z,51552.00
2018-05-04T10:13:10.456Z,51808.00
2018-05-04T10:14:10.412Z,52032.00
2018-05-04T10:15:10.374Z,51072.00
2018-05-04T10:16:10.595Z,51008.00
2018-05-04T10:17:10.307Z,50656.00
2018-05-04T10:18:10.283Z,50528.00
2018-05-04T10:19:10.285Z,50880.00
2018-05-04T10:20:10.227Z,51136.00
2018-05-04T10:21:10.202Z,51488.00
2018-05-04T10:22:10.164Z,50784.00
2018-05-04T10:23:10.144Z,50880.00
2018-05-04T10:24:10.119Z,50752.00
2018-05-04T10:25:10.114Z,51136.00
2018-05-04T10:26:10.063Z,50848.00
2018-05-04T10:27:10.044Z,49920.00
2018-05-04T10:28:10.007Z,50656.00
2018-05-04T10:29:09.981Z,50624.00
2018-05-04T10:30:09.980Z,49088.00
2018-05-04T10:31:09.926Z,47104.00
2018-05-04T10:32:09.904Z,46048.00
2018-05-04T10:33:09.872Z,46304.00
2018-05-04T10:34:09.855Z,49056.00
2018-05-04T10:35:09.838Z,50624.00
2018-05-04T10:36:09.824Z,51712.00
2018-05-04T10:37:09.766Z,52224.00
2018-05-04T10:38:09.783Z,52512.00
2018-05-04T10:39:09.715Z,52512.00
2018-05-04T10:40:09.692Z,52768.00
2018-05-04T10:41:09.664Z,53280.00
2018-05-04T10:42:09.664Z,52992.00
2018-05-04T10:43:09.597Z,53408.00
2018-05-04T10:44:09.577Z,52960.00
2018-05-04T10:45:09.612Z,53376.00
2018-05-04T10:46:09.524Z,53408.00
2018-05-04T10:47:09.510Z,53152.00
2018-05-04T10:48:09.467Z,52608.00
2018-05-04T10:49:09.441Z,53376.00
2018-05-04T10:50:09.412Z,53536.00
2018-05-04T10:51:09.379Z,53152.00
2018-05-04T10:52:09.362Z,52608.00
2018-05-04T10:53:09.361Z,53472.00
2018-05-04T10:54:09.289Z,54592.00
2018-05-04T10:55:09.269Z,54400.00
2018-05-04T10:56:09.243Z,55008.00
2018-05-04T10:57:09.226Z,56384.00
2018-05-04T10:58:09.222Z,56608.00
2018-05-04T10:59:09.162Z,57312.00
2018-05-04T11:00:09.124Z,56512.00
2018-05-04T11:01:09.091Z,56608.00
2018-05-04T11:02:09.063Z,57184.00
2018-05-04T11:03:09.074Z,57792.00
2018-05-04T11:04:09.009Z,58304.00
2018-05-04T11:05:08.988Z,57984.00
2018-05-04T11:06:08.963Z,57888.00
2018-05-04T11:07:08.925Z,58592.00
2018-05-04T11:08:08.932Z,59072.00
2018-05-04T11:09:08.874Z,58752.00
2018-05-04T11:10:08.851Z,58848.00
2018-05-04T11:11:08.815Z,58912.00
2018-05-04T11:12:08.791Z,57984.00
2018-05-04T11:13:18.519Z,57184.00
2018-05-04T11:14:08.731Z,57024.00
2018-05-04T11:15:08.707Z,59040.00
2018-05-04T11:16:08.693Z,59712.00
2018-05-04T11:17:08.656Z,59648.00
2018-05-04T11:18:08.650Z,59488.00
2018-05-04T11:19:08.590Z,60032.00
2018-05-04T11:20:08.563Z,60704.00
2018-05-04T11:21:08.540Z,61312.00
2018-05-04T11:22:08.512Z,60736.00
2018-05-04T11:23:08.517Z,58912.00
2018-05-04T11:24:08.454Z,58176.00
2018-05-04T11:25:08.430Z,58656.00
2018-05-04T11:26:08.400Z,59040.00
2018-05-04T11:27:08.379Z,59200.00
2018-05-04T11:28:08.376Z,58112.00
2018-05-04T11:29:08.315Z,59328.00
2018-05-04T11:30:08.304Z,58560.00
2018-05-04T11:31:08.254Z,55424.00
2018-05-04T11:32:08.223Z,53344.00
2018-05-04T11:33:08.235Z,53024.00
2018-05-04T11:34:08.179Z,53824.00
2018-05-04T11:35:08.163Z,54048.00
2018-05-04T11:36:18.518Z,55424.00
2018-05-04T11:37:08.094Z,55872.00
2018-05-04T11:38:08.096Z,56576.00
2018-05-04T11:39:08.053Z,56576.00
2018-05-04T11:40:08.012Z,57280.00
2018-05-04T11:41:07.980Z,56416.00
2018-05-04T11:42:07.962Z,56384.00
2018-05-04T11:43:07.961Z,57184.00
2018-05-04T11:44:07.909Z,57248.00
2018-05-04T11:45:07.886Z,56544.00
2018-05-04T11:46:07.884Z,55968.00
2018-05-04T11:47:07.819Z,57216.00
2018-05-04T11:48:07.819Z,57056.00
2018-05-04T11:49:07.761Z,56672.00
2018-05-04T11:50:07.737Z,56896.00
2018-05-04T11:51:18.056Z,56128.00
2018-05-04T11:52:07.679Z,56384.00
2018-05-04T11:53:07.685Z,57632.00
2018-05-04T11:54:07.629Z,58432.00
2018-05-04T11:55:07.629Z,58752.00
2018-05-04T11:56:07.580Z,58432.00
2018-05-04T11:57:07.552Z,57824.00
2018-05-04T11:58:07.562Z,58208.00
2018-05-04T11:59:07.487Z,57856.00
2018-05-04T12:00:07.466Z,58144.00
2018-05-04T12:01:07.450Z,58784.00
2018-05-04T12:02:07.413Z,58528.00
2018-05-04T12:03:07.410Z,59424.00
2018-05-04T12:04:07.364Z,59776.00
2018-05-04T12:05:07.341Z,58208.00
2018-05-04T12:06:07.301Z,56288.00
2018-05-04T12:07:07.272Z,55136.00
2018-05-04T12:08:07.281Z,55808.00
2018-05-04T12:09:07.228Z,54656.00
2018-05-04T12:10:07.195Z,53632.00
2018-05-04T12:11:07.168Z,54016.00
2018-05-04T12:12:07.138Z,56768.00
2018-05-04T12:13:07.148Z,58688.00